createdAt,value
2023-04-15T00:01:04.849Z,94246.72
2023-04-15T00:03:31.852Z,94251.78
2023-04-15T00:05:58.710Z,94253.47
2023-04-15T00:08:25.704Z,94251.53
2023-04-15T00:10:53.101Z,94251.28
2023-04-15T00:13:19.928Z,94246.31
2023-04-15T00:15:46.634Z,94245.09
2023-04-15T00:18:13.339Z,94242.00
2023-04-15T00:20:40.041Z,94245.03
2023-04-15T00:23:07.077Z,94247.00
2023-04-15T00:25:33.788Z,94245.81
2023-04-15T00:28:00.564Z,94248.81
2023-04-15T00:30:27.292Z,94243.84
2023-04-15T00:32:54.058Z,94249.53
2023-04-15T00:35:20.797Z,94248.00
2023-04-15T00:37:47.577Z,94252.97
2023-04-15T00:40:18.874Z,94240.69
2023-04-15T00:42:47.755Z,94253.50
2023-04-15T00:45:14.400Z,94249.94
2023-04-15T00:47:45.085Z,94250.28
2023-04-15T00:50:12.730Z,94246.75
2023-04-15T00:52:40.952Z,94249.16
2023-04-15T00:55:08.781Z,94252.59
2023-04-15T00:57:36.539Z,94250.63
2023-04-15T01:00:05.389Z,94254.19
2023-04-15T01:02:32.393Z,94256.44
2023-04-15T01:04:59.353Z,94248.44
2023-04-15T01:07:26.088Z,94250.75
2023-04-15T01:09:53.196Z,94258.97
2023-04-15T01:12:20.510Z,94244.91
2023-04-15T01:14:47.288Z,94246.84
2023-04-15T01:17:14.172Z,94249.16
2023-04-15T01:19:40.842Z,94249.34
2023-04-15T01:22:07.722Z,94243.63
2023-04-15T01:24:36.904Z,94243.91
2023-04-15T01:27:05.250Z,94247.09
2023-04-15T01:29:35.677Z,94252.34
2023-04-15T01:32:02.322Z,94251.78
2023-04-15T01:34:28.944Z,94251.19
2023-04-15T01:36:55.538Z,94253.00
2023-04-15T01:39:22.167Z,94252.56
2023-04-15T01:41:48.771Z,94252.63
2023-04-15T01:44:15.399Z,94249.91
2023-04-15T01:46:42.122Z,94252.56
2023-04-15T01:49:08.813Z,94242.75
2023-04-15T01:51:35.426Z,94237.03
2023-04-15T01:54:02.038Z,94243.66
2023-04-15T01:56:28.636Z,94229.91
2023-04-15T01:58:55.316Z,94244.47
2023-04-15T02:01:22.394Z,94236.81
2023-04-15T02:03:49.363Z,94236.69
2023-04-15T02:06:16.212Z,94238.97
2023-04-15T02:08:42.848Z,94244.56
2023-04-15T02:11:09.495Z,94237.50
2023-04-15T02:13:36.099Z,94234.00
2023-04-15T02:16:03.471Z,94236.19
2023-04-15T02:18:30.152Z,94229.56
2023-04-15T02:20:56.796Z,94225.53
2023-04-15T02:23:23.401Z,94225.69
2023-04-15T02:25:53.346Z,94228.41
2023-04-15T02:28:21.887Z,94220.72
2023-04-15T02:30:49.459Z,94225.50
2023-04-15T02:33:16.077Z,94222.81
2023-04-15T02:35:42.748Z,94222.69
2023-04-15T02:38:09.435Z,94215.75
2023-04-15T02:40:36.089Z,94214.22
2023-04-15T02:43:03.128Z,94217.59
2023-04-15T02:45:29.795Z,94212.56
2023-04-15T02:47:56.482Z,94208.91
2023-04-15T02:50:23.160Z,94204.38
2023-04-15T02:52:49.797Z,94214.41
2023-04-15T02:55:16.411Z,94212.84
2023-04-15T02:57:43.066Z,94207.94
2023-04-15T03:00:10.626Z,94207.94
2023-04-15T03:02:39.062Z,94229.06
2023-04-15T03:05:06.309Z,94222.75
2023-04-15T03:07:33.021Z,94214.69
2023-04-15T03:09:59.644Z,94227.44
2023-04-15T03:12:26.296Z,94222.63
2023-04-15T03:14:52.900Z,94223.44
2023-04-15T03:17:19.524Z,94218.88
2023-04-15T03:19:46.198Z,94212.53
2023-04-15T03:22:12.801Z,94215.16
2023-04-15T03:24:39.436Z,94213.19
2023-04-15T03:27:06.076Z,94222.53
2023-04-15T03:29:32.712Z,94213.50
2023-04-15T03:31:59.330Z,94212.78
2023-04-15T03:34:25.946Z,94211.50
2023-04-15T03:36:52.633Z,94207.41
2023-04-15T03:39:19.229Z,94206.13
2023-04-15T03:41:45.998Z,94217.47
2023-04-15T03:44:12.629Z,94212.41
2023-04-15T03:46:39.231Z,94210.28
2023-04-15T03:49:07.284Z,94206.59
2023-04-15T03:51:33.977Z,94205.09
2023-04-15T03:54:00.616Z,94210.72
2023-04-15T03:56:27.274Z,94206.88
2023-04-15T03:58:53.877Z,94212.38
2023-04-15T04:01:20.503Z,94209.66
2023-04-15T04:03:50.237Z,94210.09
2023-04-15T04:06:17.050Z,94214.25
2023-04-15T04:08:43.672Z,94218.59
2023-04-15T04:11:10.350Z,94210.84
2023-04-15T04:13:37.052Z,94225.13
2023-04-15T04:16:03.789Z,94217.56
2023-04-15T04:18:34.038Z,94207.28
2023-04-15T04:21:01.346Z,94214.03
2023-04-15T04:23:28.057Z,94213.94
2023-04-15T04:25:54.788Z,94207.25
2023-04-15T04:28:21.540Z,94210.44
2023-04-15T04:30:48.286Z,94209.59
2023-04-15T04:33:15.053Z,94211.16
2023-04-15T04:35:41.691Z,94218.06
2023-04-15T04:38:08.278Z,94210.66
2023-04-15T04:40:35.094Z,94207.97
2023-04-15T04:43:01.840Z,94215.66
2023-04-15T04:45:28.454Z,94206.59
2023-04-15T04:47:55.569Z,94206.50
2023-04-15T04:50:22.264Z,94206.59
2023-04-15T04:52:48.939Z,94206.72
2023-04-15T04:55:15.749Z,94198.06
2023-04-15T04:57:42.377Z,94192.84
2023-04-15T05:00:09.400Z,94193.34
2023-04-15T05:02:36.281Z,94201.03
2023-04-15T05:05:03.061Z,94200.09
2023-04-15T05:07:29.734Z,94199.81
2023-04-15T05:09:56.334Z,94200.81
2023-04-15T05:12:22.984Z,94194.59
2023-04-15T05:14:49.583Z,94197.25
2023-04-15T05:17:16.217Z,94195.00
2023-04-15T05:19:42.874Z,94200.50
2023-04-15T05:22:09.473Z,94193.44
2023-04-15T05:24:36.193Z,94196.31
2023-04-15T05:27:02.814Z,94194.94
2023-04-15T05:29:29.523Z,94196.72
2023-04-15T05:31:56.632Z,94194.75
2023-04-15T05:34:23.267Z,94198.25
2023-04-15T05:36:49.921Z,94188.69
2023-04-15T05:39:16.698Z,94189.28
2023-04-15T05:41:43.762Z,94182.41
2023-04-15T05:44:10.391Z,94182.44
2023-04-15T05:46:37.157Z,94183.94
2023-04-15T05:49:04.102Z,94180.97
2023-04-15T05:51:30.920Z,94186.38
2023-04-15T05:53:57.590Z,94180.69
2023-04-15T05:56:24.238Z,94180.31
2023-04-15T05:58:52.518Z,94188.25
2023-04-15T06:01:20.478Z,94193.44
2023-04-15T06:03:47.325Z,94188.91
2023-04-15T06:06:14.389Z,94185.44
2023-04-15T06:08:41.335Z,94194.50
2023-04-15T06:11:07.975Z,94200.41
2023-04-15T06:13:34.987Z,94202.00
2023-04-15T06:16:02.428Z,94197.66
2023-04-15T06:18:29.034Z,94215.09
2023-04-15T06:20:55.832Z,94221.47
2023-04-15T06:23:22.452Z,94217.81
2023-04-15T06:25:49.079Z,94221.00
2023-04-15T06:28:15.715Z,94224.66
2023-04-15T06:30:42.397Z,94227.16
2023-04-15T06:33:09.024Z,94233.69
2023-04-15T06:35:35.669Z,94235.00
2023-04-15T06:38:02.363Z,94237.25
2023-04-15T06:40:29.093Z,94239.34
2023-04-15T06:42:55.837Z,94250.97
2023-04-15T06:45:22.529Z,94249.47
2023-04-15T06:47:49.269Z,94251.63
2023-04-15T06:50:15.990Z,94255.53
2023-04-15T06:52:42.691Z,94250.28
2023-04-15T06:55:09.486Z,94255.13
2023-04-15T06:57:36.440Z,94255.19
2023-04-15T07:00:04.849Z,94253.38
2023-04-15T07:02:31.597Z,94244.44
2023-04-15T07:04:58.325Z,94251.56
2023-04-15T07:07:25.156Z,94244.53
2023-04-15T07:09:51.849Z,94242.34
2023-04-15T07:12:18.474Z,94242.63
2023-04-15T07:14:45.101Z,94243.88
2023-04-15T07:17:11.859Z,94244.56
2023-04-15T07:19:38.557Z,94231.41
2023-04-15T07:22:05.513Z,94230.31
2023-04-15T07:24:32.114Z,94244.25
2023-04-15T07:27:00.350Z,94243.63
2023-04-15T07:29:27.732Z,94247.47
2023-04-15T07:31:54.360Z,94244.59
2023-04-15T07:34:21.081Z,94240.22
2023-04-15T07:36:47.941Z,94238.38
2023-04-15T07:39:14.648Z,94241.81
2023-04-15T07:41:41.361Z,94244.34
2023-04-15T07:44:08.024Z,94245.34
2023-04-15T07:46:34.858Z,94245.19
2023-04-15T07:49:01.851Z,94244.09
2023-04-15T07:51:28.763Z,94258.09
2023-04-15T07:53:55.365Z,94253.38
2023-04-15T07:56:22.024Z,94244.44
2023-04-15T07:58:48.725Z,94243.22
2023-04-15T08:01:15.391Z,94246.16
2023-04-15T08:03:42.171Z,94249.91
2023-04-15T08:06:08.894Z,94253.59
2023-04-15T08:08:35.510Z,94248.88
2023-04-15T08:11:02.152Z,94253.63
2023-04-15T08:13:28.769Z,94256.47
2023-04-15T08:16:15.063Z,94254.63
2023-04-15T08:18:43.280Z,94248.34
2023-04-15T08:21:10.664Z,94257.00
2023-04-15T08:23:38.422Z,94252.47
2023-04-15T08:26:05.411Z,94257.81
2023-04-15T08:28:32.081Z,94253.22
2023-04-15T08:30:59.324Z,94266.00
2023-04-15T08:33:26.220Z,94264.13
2023-04-15T08:35:52.949Z,94265.13
2023-04-15T08:38:19.582Z,94270.38
2023-04-15T08:40:46.766Z,94271.91
2023-04-15T08:43:21.508Z,94268.16
2023-04-15T08:45:49.388Z,94268.44
2023-04-15T08:48:17.466Z,94271.00
2023-04-15T08:50:44.919Z,94271.97
2023-04-15T08:53:12.718Z,94269.75
2023-04-15T08:55:44.569Z,94275.50
2023-04-15T08:58:13.791Z,94278.66
2023-04-15T09:00:41.059Z,94279.34
2023-04-15T09:03:10.469Z,94284.84
2023-04-15T09:05:38.737Z,94285.84
2023-04-15T09:08:05.556Z,94295.28
2023-04-15T09:10:33.644Z,94297.13
2023-04-15T09:13:01.735Z,94305.59
2023-04-15T09:15:28.383Z,94313.78
2023-04-15T09:17:55.675Z,94317.63
2023-04-15T09:20:24.207Z,94322.09
2023-04-15T09:22:53.647Z,94323.44
2023-04-15T09:25:23.067Z,94323.19
2023-04-15T09:27:58.633Z,94325.31
2023-04-15T09:30:25.896Z,94333.03
2023-04-15T09:32:53.974Z,94331.06
2023-04-15T09:35:22.483Z,94339.31
2023-04-15T09:37:50.116Z,94332.78
2023-04-15T09:40:33.232Z,94333.22
2023-04-15T09:43:00.222Z,94328.81
2023-04-15T09:45:29.285Z,94338.88
2023-04-15T09:47:59.198Z,94349.66
2023-04-15T09:50:29.615Z,94349.13
2023-04-15T09:52:56.275Z,94354.69
2023-04-15T09:55:23.078Z,94363.03
2023-04-15T09:57:49.699Z,94366.09
2023-04-15T10:00:16.493Z,94368.00
2023-04-15T10:02:43.511Z,94368.81
2023-04-15T10:05:15.620Z,94366.88
2023-04-15T10:07:42.687Z,94374.56
2023-04-15T10:10:10.821Z,94379.22
2023-04-15T10:12:40.750Z,94377.34
2023-04-15T10:15:15.579Z,94385.97
2023-04-15T10:17:44.619Z,94396.69
2023-04-15T10:20:13.529Z,94397.66
2023-04-15T10:22:40.768Z,94389.50
2023-04-15T10:25:07.777Z,94402.75
2023-04-15T10:27:36.260Z,94390.81
2023-04-15T10:30:03.875Z,94403.84
2023-04-15T10:32:32.719Z,94407.38
2023-04-15T10:35:00.238Z,94412.56
2023-04-15T10:37:39.181Z,94417.84
2023-04-15T10:40:27.130Z,94412.72
2023-04-15T10:42:55.781Z,94420.63
2023-04-15T10:45:26.092Z,94418.66
2023-04-15T10:47:55.613Z,94424.75
2023-04-15T10:50:22.328Z,94439.28
2023-04-15T10:52:55.187Z,94428.13
2023-04-15T10:55:26.010Z,94421.38
2023-04-15T10:57:59.920Z,94438.13
2023-04-15T11:00:32.327Z,94445.16
2023-04-15T11:03:05.308Z,94442.97
2023-04-15T11:05:41.184Z,94447.66
2023-04-15T11:08:10.527Z,94447.91
2023-04-15T11:10:37.227Z,94437.50
2023-04-15T11:13:14.818Z,94449.00
2023-04-15T11:15:43.993Z,94441.56
2023-04-15T11:18:19.780Z,94450.84
2023-04-15T11:20:51.282Z,94462.63
2023-04-15T11:23:38.034Z,94469.50
2023-04-15T11:26:07.197Z,94466.03
2023-04-15T11:28:33.839Z,94466.81
2023-04-15T11:31:07.572Z,94470.50
2023-04-15T11:33:34.308Z,94460.72
2023-04-15T11:36:01.571Z,94478.97
2023-04-15T11:38:28.210Z,94476.56
2023-04-15T11:40:54.902Z,94487.50
2023-04-15T11:43:23.345Z,94485.22
2023-04-15T11:45:54.366Z,94483.25
2023-04-15T11:48:23.927Z,94483.91
2023-04-15T11:51:03.791Z,94479.94
2023-04-15T11:53:51.594Z,94485.94
2023-04-15T11:56:25.247Z,94491.97
2023-04-15T11:58:54.511Z,94492.91
2023-04-15T12:01:21.350Z,94496.25
2023-04-15T12:04:01.206Z,94496.84
2023-04-15T12:06:33.841Z,94502.34
2023-04-15T12:09:06.469Z,94507.78
2023-04-15T12:11:45.756Z,94504.88
2023-04-15T12:14:26.011Z,94503.94
2023-04-15T12:16:55.012Z,94511.84
2023-04-15T12:19:31.057Z,94514.84
2023-04-15T12:22:01.341Z,94517.81
2023-04-15T12:24:28.351Z,94518.38
2023-04-15T12:26:57.384Z,94525.13
2023-04-15T12:29:29.092Z,94527.59
2023-04-15T12:32:05.800Z,94531.78
2023-04-15T12:34:41.083Z,94533.13
2023-04-15T12:37:10.333Z,94535.94
2023-04-15T12:39:39.415Z,94544.50
2023-04-15T12:42:07.162Z,94541.16
2023-04-15T12:44:35.165Z,94546.25
2023-04-15T12:47:01.953Z,94546.72
2023-04-15T12:49:29.649Z,94549.09
2023-04-15T12:51:58.634Z,94549.09
2023-04-15T12:54:25.530Z,94559.28
2023-04-15T12:56:53.177Z,94564.56
2023-04-15T12:59:22.037Z,94579.59
2023-04-15T13:01:49.319Z,94563.06
2023-04-15T13:04:16.955Z,94574.97
2023-04-15T13:06:44.616Z,94580.88
2023-04-15T13:09:11.357Z,94578.66
2023-04-15T13:11:39.077Z,94576.28
2023-04-15T13:14:08.602Z,94588.28
2023-04-15T13:16:36.205Z,94591.13
2023-04-15T13:19:04.177Z,94587.44
2023-04-15T13:21:31.606Z,94587.44
2023-04-15T13:23:58.195Z,94593.03
2023-04-15T13:26:24.869Z,94605.19
2023-04-15T13:28:51.499Z,94606.53
2023-04-15T13:31:18.098Z,94610.38
2023-04-15T13:33:44.718Z,94612.59
2023-04-15T13:36:11.507Z,94610.75
2023-04-15T13:38:38.140Z,94607.38
2023-04-15T13:41:04.785Z,94612.19
2023-04-15T13:43:31.396Z,94613.97
2023-04-15T13:45:58.195Z,94613.16
2023-04-15T13:48:24.989Z,94617.75
2023-04-15T13:50:51.900Z,94619.59
2023-04-15T13:53:18.564Z,94622.63
2023-04-15T13:55:45.190Z,94621.88
2023-04-15T13:58:11.826Z,94618.44
2023-04-15T14:00:38.409Z,94625.88
2023-04-15T14:03:05.371Z,94621.22
2023-04-15T14:05:33.082Z,94626.97
2023-04-15T14:08:00.560Z,94628.19
2023-04-15T14:10:27.219Z,94630.22
2023-04-15T14:12:53.853Z,94633.03
2023-04-15T14:15:21.309Z,94639.38
2023-04-15T14:17:48.211Z,94647.25
2023-04-15T14:20:16.925Z,94643.00
2023-04-15T14:22:44.047Z,94653.03
2023-04-15T14:25:17.298Z,94650.63
2023-04-15T14:27:50.051Z,94654.78
2023-04-15T14:30:16.671Z,94657.13
2023-04-15T14:32:43.526Z,94661.09
2023-04-15T14:35:10.136Z,94669.03
2023-04-15T14:37:36.888Z,94664.94
2023-04-15T14:40:03.676Z,94666.66
2023-04-15T14:42:30.347Z,94669.56
2023-04-15T14:44:56.955Z,94673.22
2023-04-15T14:47:23.638Z,94681.34
2023-04-15T14:49:50.657Z,94687.03
2023-04-15T14:52:17.425Z,94683.34
2023-04-15T14:54:44.157Z,94693.81
2023-04-15T14:57:10.807Z,94698.84
2023-04-15T14:59:37.468Z,94701.81
2023-04-15T15:02:04.239Z,94704.81
2023-04-15T15:04:31.135Z,94704.88
2023-04-15T15:06:57.786Z,94706.72
2023-04-15T15:09:24.754Z,94709.56
2023-04-15T15:11:51.734Z,94711.59
2023-04-15T15:14:20.275Z,94720.81
2023-04-15T15:16:46.938Z,94719.56
2023-04-15T15:19:13.919Z,94718.63
2023-04-15T15:21:40.576Z,94726.03
2023-04-15T15:24:07.620Z,94726.97
2023-04-15T15:26:34.414Z,94739.78
2023-04-15T15:29:01.104Z,94735.69
2023-04-15T15:31:27.769Z,94734.16
2023-04-15T15:33:54.437Z,94748.47
2023-04-15T15:36:21.167Z,94746.09
2023-04-15T15:38:47.871Z,94750.09
2023-04-15T15:41:14.945Z,94747.25
2023-04-15T15:43:41.627Z,94752.19
2023-04-15T15:46:08.509Z,94764.06
2023-04-15T15:48:35.421Z,94764.09
2023-04-15T15:51:02.060Z,94763.97
2023-04-15T15:53:28.652Z,94761.75
2023-04-15T15:55:55.297Z,94761.41
2023-04-15T15:58:21.930Z,94764.28
2023-04-15T16:00:48.569Z,94766.56
2023-04-15T16:03:15.531Z,94771.50
2023-04-15T16:05:42.414Z,94778.50
2023-04-15T16:08:09.174Z,94779.47
2023-04-15T16:10:35.913Z,94782.72
2023-04-15T16:13:02.852Z,94790.44
2023-04-15T16:15:29.504Z,94790.50
2023-04-15T16:17:56.314Z,94800.28
2023-04-15T16:20:23.383Z,94795.19
2023-04-15T16:22:50.107Z,94803.94
2023-04-15T16:25:17.448Z,94806.00
2023-04-15T16:27:58.878Z,94807.81
2023-04-15T16:30:30.002Z,94809.22
2023-04-15T16:32:57.429Z,94809.78
2023-04-15T16:35:24.102Z,94813.28
2023-04-15T16:37:50.707Z,94820.94
2023-04-15T16:40:17.490Z,94828.06
2023-04-15T16:42:44.155Z,94831.50
2023-04-15T16:45:11.092Z,94837.56
2023-04-15T16:47:37.827Z,94839.69
2023-04-15T16:50:04.877Z,94849.88
2023-04-15T16:52:31.612Z,94850.41
2023-04-15T16:54:58.399Z,94857.00
2023-04-15T16:57:25.097Z,94864.22
2023-04-15T17:00:12.144Z,94870.78
2023-04-15T17:02:38.884Z,94869.34
2023-04-15T17:05:06.322Z,94875.47
2023-04-15T17:07:32.940Z,94875.66
2023-04-15T17:09:59.551Z,94871.94
2023-04-15T17:12:26.218Z,94876.31
2023-04-15T17:14:52.851Z,94870.97
2023-04-15T17:17:19.466Z,94878.06
2023-04-15T17:19:46.147Z,94888.53
2023-04-15T17:22:16.579Z,94896.78
2023-04-15T17:24:43.202Z,94896.59
2023-04-15T17:27:09.811Z,94888.13
2023-04-15T17:29:36.425Z,94895.03
2023-04-15T17:32:03.358Z,94896.63
2023-04-15T17:34:50.796Z,94902.69
2023-04-15T17:37:16.838Z,94911.50
2023-04-15T17:39:43.603Z,94911.34
2023-04-15T17:42:13.385Z,94923.41
2023-04-15T17:44:40.060Z,94928.50
2023-04-15T17:47:06.766Z,94944.13
2023-04-15T17:49:33.437Z,94944.09
2023-04-15T17:52:00.725Z,94957.53
2023-04-15T17:54:27.329Z,94958.03
2023-04-15T17:56:54.300Z,94967.09
2023-04-15T17:59:20.901Z,94956.97
2023-04-15T18:01:47.589Z,94958.59
2023-04-15T18:04:14.512Z,94961.81
2023-04-15T18:06:41.438Z,94959.75
2023-04-15T18:09:08.226Z,94972.84
2023-04-15T18:11:34.931Z,94975.59
2023-04-15T18:14:03.418Z,94981.91
2023-04-15T18:16:30.383Z,94980.75
2023-04-15T18:18:57.084Z,94990.19
2023-04-15T18:21:23.781Z,94992.25
2023-04-15T18:23:50.432Z,94997.19
2023-04-15T18:26:17.083Z,95006.31
2023-04-15T18:28:43.786Z,95008.63
2023-04-15T18:31:10.452Z,95012.75
2023-04-15T18:33:37.169Z,95012.41
2023-04-15T18:36:03.922Z,95010.38
2023-04-15T18:38:30.558Z,95021.75
2023-04-15T18:40:57.189Z,95019.00
2023-04-15T18:43:23.816Z,95029.09
2023-04-15T18:45:52.411Z,95036.91
2023-04-15T18:48:19.109Z,95038.41
2023-04-15T18:50:45.699Z,95050.16
2023-04-15T18:53:12.389Z,95055.19
2023-04-15T18:55:39.934Z,95054.09
2023-04-15T18:58:08.798Z,95057.75
2023-04-15T19:00:36.307Z,95054.03
2023-04-15T19:03:03.939Z,95069.78
2023-04-15T19:05:30.600Z,95075.06
2023-04-15T19:07:59.179Z,95082.91
2023-04-15T19:10:26.400Z,95083.22
2023-04-15T19:12:53.018Z,95089.81
2023-04-15T19:15:19.979Z,95084.00
2023-04-15T19:17:46.655Z,95088.69
2023-04-15T19:20:13.316Z,95090.19
2023-04-15T19:22:40.066Z,95096.53
2023-04-15T19:25:06.950Z,95099.53
2023-04-15T19:27:33.612Z,95100.44
2023-04-15T19:30:00.244Z,95106.25
2023-04-15T19:32:26.871Z,95110.19
2023-04-15T19:34:53.544Z,95112.78
2023-04-15T19:37:20.191Z,95113.13
2023-04-15T19:39:46.893Z,95114.19
2023-04-15T19:42:13.543Z,95126.50
2023-04-15T19:44:40.126Z,95126.06
2023-04-15T19:47:06.705Z,95134.50
2023-04-15T19:49:33.366Z,95132.75
2023-04-15T19:52:00.007Z,95142.38
2023-04-15T19:54:26.652Z,95137.34
2023-04-15T19:56:53.284Z,95148.09
2023-04-15T19:59:19.953Z,95146.31
2023-04-15T20:01:46.687Z,95144.41
2023-04-15T20:04:13.506Z,95150.53
2023-04-15T20:06:40.226Z,95153.19
2023-04-15T20:09:07.787Z,95159.53
2023-04-15T20:12:46.713Z,95165.31
2023-04-15T20:14:22.799Z,95164.22
2023-04-15T20:16:49.498Z,95153.09
2023-04-15T20:19:16.161Z,95157.31
2023-04-15T20:21:42.799Z,95152.56
2023-04-15T20:24:09.598Z,95152.28
2023-04-15T20:26:36.207Z,95159.03
2023-04-15T20:29:02.949Z,95156.44
2023-04-15T20:31:29.683Z,95154.19
2023-04-15T20:33:57.215Z,95150.03
2023-04-15T20:36:26.595Z,95159.00
2023-04-15T20:38:53.186Z,95149.94
2023-04-15T20:41:19.809Z,95156.38
2023-04-15T20:43:46.507Z,95156.50
2023-04-15T20:46:20.562Z,95160.88
2023-04-15T20:48:48.622Z,95162.72
2023-04-15T20:51:15.257Z,95171.41
2023-04-15T20:53:42.010Z,95171.56
2023-04-15T20:56:08.708Z,95173.06
2023-04-15T20:58:35.422Z,95164.78
2023-04-15T21:01:02.182Z,95177.31
2023-04-15T21:03:32.401Z,95180.53
2023-04-15T21:05:59.081Z,95178.81
2023-04-15T21:08:25.824Z,95185.59
2023-04-15T21:10:52.424Z,95180.53
2023-04-15T21:13:19.094Z,95176.31
2023-04-15T21:15:47.819Z,95179.00
2023-04-15T21:18:14.733Z,95173.59
2023-04-15T21:20:41.328Z,95176.88
2023-04-15T21:23:07.956Z,95190.16
2023-04-15T21:25:34.837Z,95189.47
2023-04-15T21:28:01.486Z,95184.56
2023-04-15T21:30:28.144Z,95184.59
2023-04-15T21:32:55.048Z,95197.28
2023-04-15T21:35:21.780Z,95197.59
2023-04-15T21:37:48.429Z,95209.47
2023-04-15T21:40:15.318Z,95214.50
2023-04-15T21:42:41.906Z,95208.97
2023-04-15T21:45:08.939Z,95218.38
2023-04-15T21:48:00.438Z,95206.13
2023-04-15T21:50:22.212Z,95208.91
2023-04-15T21:52:48.807Z,95218.66
2023-04-15T21:55:15.428Z,95207.22
2023-04-15T21:57:42.053Z,95198.34
2023-04-15T22:00:08.920Z,95199.91
2023-04-15T22:02:35.667Z,95208.09
2023-04-15T22:05:02.360Z,95206.44
2023-04-15T22:07:29.070Z,95215.94
2023-04-15T22:09:55.749Z,95218.22
2023-04-15T22:12:24.540Z,95218.97
2023-04-15T22:14:51.148Z,95217.47
2023-04-15T22:17:17.835Z,95220.88
2023-04-15T22:19:44.434Z,95222.81
2023-04-15T22:22:11.185Z,95222.69
2023-04-15T22:24:40.497Z,95221.88
2023-04-15T22:27:07.537Z,95228.75
2023-04-15T22:29:34.596Z,95226.72
2023-04-15T22:32:01.195Z,95227.69
2023-04-15T22:34:27.804Z,95223.66
2023-04-15T22:36:54.414Z,95225.97
2023-04-15T22:39:21.005Z,95221.44
2023-04-15T22:41:47.691Z,95225.28
2023-04-15T22:44:14.350Z,95232.38
2023-04-15T22:46:41.043Z,95236.06
2023-04-15T22:49:09.590Z,95240.00
2023-04-15T22:51:36.761Z,95236.47
2023-04-15T22:54:03.430Z,95241.00
2023-04-15T22:56:30.087Z,95247.34
2023-04-15T22:58:56.693Z,95250.00
2023-04-15T23:01:23.333Z,95246.44
2023-04-15T23:03:56.610Z,95248.69
2023-04-15T23:06:31.640Z,95248.34
2023-04-15T23:08:58.684Z,95255.38
2023-04-15T23:11:25.272Z,95255.97
2023-04-15T23:13:51.973Z,95261.47
2023-04-15T23:16:18.727Z,95266.69
2023-04-15T23:18:45.380Z,95259.78
2023-04-15T23:21:12.011Z,95260.84
2023-04-15T23:23:38.715Z,95265.25
2023-04-15T23:26:05.364Z,95265.84
2023-04-15T23:28:32.013Z,95263.84
2023-04-15T23:31:00.413Z,95275.25
2023-04-15T23:33:27.878Z,95276.25
2023-04-15T23:35:54.526Z,95274.75
2023-04-15T23:38:21.161Z,95271.19
2023-04-15T23:40:50.147Z,95278.47
2023-04-15T23:43:16.749Z,95287.19
2023-04-15T23:45:43.355Z,95285.28
2023-04-15T23:48:09.973Z,95280.50
2023-04-15T23:50:36.597Z,95282.53
2023-04-15T23:53:03.307Z,95291.91
2023-04-15T23:55:29.947Z,95292.66
2023-04-15T23:57:56.711Z,95288.19
